createdAt,value
2018-12-30T00:00:04.007Z,98846.80
2018-12-30T00:01:09.995Z,98833.34
2018-12-30T00:02:14.582Z,98853.09
2018-12-30T00:03:18.583Z,98834.70
2018-12-30T00:04:21.916Z,98819.28
2018-12-30T00:05:27.147Z,98843.63
2018-12-30T00:06:29.784Z,98832.86
2018-12-30T00:07:36.167Z,98859.06
2018-12-30T00:08:39.150Z,98844.75
2018-12-30T00:09:42.084Z,98869.58
2018-12-30T00:10:45.197Z,98869.58
2018-12-30T00:11:52.848Z,98861.52
2018-12-30T00:12:56.344Z,98858.50
2018-12-30T00:14:02.643Z,98857.13
2018-12-30T00:15:07.707Z,98878.80
2018-12-30T00:16:10.839Z,98874.47
2018-12-30T00:17:14.180Z,98869.33
2018-12-30T00:18:17.509Z,98869.33
2018-12-30T00:19:20.702Z,98859.32
2018-12-30T00:20:26.115Z,98861.47
2018-12-30T00:21:29.034Z,98866.89
2018-12-30T00:22:32.092Z,98877.70
2018-12-30T00:23:34.902Z,98867.16
2018-12-30T00:24:38.462Z,98867.45
2018-12-30T00:25:41.859Z,98878.27
2018-12-30T00:26:44.593Z,98879.89
2018-12-30T00:27:47.704Z,98870.44
2018-12-30T00:28:56.433Z,98870.44
2018-12-30T00:29:59.680Z,98849.59
2018-12-30T00:31:02.649Z,98877.77
2018-12-30T00:32:06.237Z,98879.37
2018-12-30T00:33:10.437Z,98861.27
2018-12-30T00:34:16.807Z,98874.50
2018-12-30T00:35:24.857Z,98890.17
2018-12-30T00:36:33.267Z,98883.42
2018-12-30T00:37:39.259Z,98883.42
2018-12-30T00:38:44.153Z,98878.28
2018-12-30T00:39:50.284Z,98881.78
2018-12-30T00:40:56.005Z,98880.45
2018-12-30T00:42:00.103Z,98888.31
2018-12-30T00:43:03.547Z,98878.02
2018-12-30T00:44:06.912Z,98878.56
2018-12-30T00:45:09.690Z,98883.97
2018-12-30T00:46:12.629Z,98889.13
2018-12-30T00:47:16.061Z,98889.13
2018-12-30T00:48:19.058Z,98902.92
2018-12-30T00:49:22.450Z,98899.43
2018-12-30T00:50:25.707Z,98906.13
2018-12-30T00:51:29.371Z,98907.78
2018-12-30T00:52:32.215Z,98902.36
2018-12-30T00:53:35.311Z,98907.23
2018-12-30T00:54:38.535Z,98910.17
2018-12-30T00:55:41.561Z,98903.17
2018-12-30T00:56:44.865Z,98927.24
2018-12-30T00:57:48.047Z,98912.91
2018-12-30T00:58:50.973Z,98921.58
2018-12-30T00:59:53.732Z,98912.64
2018-12-30T01:00:56.723Z,98928.56
2018-12-30T01:02:01.273Z,98931.27
2018-12-30T01:03:04.673Z,98932.35
2018-12-30T01:04:10.303Z,98932.07
2018-12-30T01:05:13.376Z,98951.00
2018-12-30T01:06:16.407Z,98946.67
2018-12-30T01:07:19.236Z,98946.44
2018-12-30T01:08:22.888Z,98942.63
2018-12-30T01:09:28.492Z,98942.63
2018-12-30T01:10:31.987Z,98937.22
2018-12-30T01:11:36.429Z,98952.92
2018-12-30T01:12:39.643Z,98943.97
2018-12-30T01:13:42.439Z,98936.41
2018-12-30T01:14:45.501Z,98908.81
2018-12-30T01:15:48.625Z,98949.87
2018-12-30T01:16:51.548Z,98951.23
2018-12-30T01:17:54.367Z,98953.68
2018-12-30T01:18:57.219Z,98953.68
2018-12-30T01:20:00.943Z,98958.84
2018-12-30T01:21:03.979Z,98964.78
2018-12-30T01:22:08.273Z,98963.42
2018-12-30T01:23:11.214Z,98963.42
2018-12-30T01:24:14.569Z,98961.80
2018-12-30T01:25:17.918Z,98965.61
2018-12-30T01:26:20.766Z,98967.48
2018-12-30T01:27:23.652Z,98967.48
2018-12-30T01:28:26.843Z,98958.56
2018-12-30T01:29:29.755Z,98962.35
2018-12-30T01:30:32.564Z,98972.63
2018-12-30T01:31:35.622Z,98940.74
2018-12-30T01:32:40.183Z,98940.74
2018-12-30T01:33:43.581Z,98971.30
2018-12-30T01:34:46.909Z,98973.74
2018-12-30T01:35:50.503Z,98975.34
2018-12-30T01:36:55.917Z,98983.19
2018-12-30T01:37:58.808Z,98972.64
2018-12-30T01:39:01.681Z,98980.23
2018-12-30T01:40:04.672Z,98980.23
2018-12-30T01:41:08.696Z,98976.98
2018-12-30T01:42:14.051Z,98977.78
2018-12-30T01:43:19.147Z,98977.00
2018-12-30T01:44:24.991Z,98980.27
2018-12-30T01:45:27.833Z,98976.23
2018-12-30T01:46:31.299Z,98977.84
2018-12-30T01:47:34.443Z,98989.99
2018-12-30T01:48:37.270Z,98989.99
2018-12-30T01:49:40.101Z,98983.78
2018-12-30T01:50:43.062Z,98983.25
2018-12-30T01:51:45.885Z,98965.41
2018-12-30T01:52:49.231Z,98974.88
2018-12-30T01:53:52.813Z,98977.05
2018-12-30T01:54:55.727Z,98985.40
2018-12-30T01:56:01.002Z,98981.63
2018-12-30T01:57:03.524Z,98981.63
2018-12-30T01:58:06.314Z,98990.00
2018-12-30T01:59:09.673Z,99001.65
2018-12-30T02:00:12.944Z,99001.65
2018-12-30T02:01:16.027Z,98995.15
2018-12-30T02:02:19.474Z,98977.03
2018-12-30T02:03:25.521Z,98988.91
2018-12-30T02:04:28.704Z,98996.50
2018-12-30T02:05:31.681Z,98989.73
2018-12-30T02:06:34.826Z,98993.25
2018-12-30T02:07:37.734Z,98980.81
2018-12-30T02:08:42.582Z,98997.31
2018-12-30T02:09:46.390Z,98992.17
2018-12-30T02:10:49.370Z,98992.17
2018-12-30T02:11:52.117Z,99000.58
2018-12-30T02:12:55.249Z,98997.33
2018-12-30T02:13:58.090Z,99003.27
2018-12-30T02:15:00.947Z,99003.27
2018-12-30T02:16:03.800Z,98992.98
2018-12-30T02:17:06.735Z,98992.98
2018-12-30T02:18:09.660Z,99007.59
2018-12-30T02:19:14.956Z,99002.45
2018-12-30T02:20:17.469Z,99006.78
2018-12-30T02:21:20.295Z,99006.78
2018-12-30T02:22:23.288Z,99002.17
2018-12-30T02:23:26.065Z,99002.73
2018-12-30T02:24:29.110Z,99004.64
2018-12-30T02:25:32.320Z,99007.34
2018-12-30T02:26:35.144Z,99009.23
2018-12-30T02:27:38.128Z,99002.22
2018-12-30T02:28:40.870Z,99009.52
2018-12-30T02:29:44.101Z,99010.59
2018-12-30T02:30:47.194Z,99003.27
2018-12-30T02:31:50.685Z,99013.30
2018-12-30T02:32:53.979Z,99018.70
2018-12-30T02:33:56.898Z,99015.20
2018-12-30T02:34:59.762Z,99006.53
2018-12-30T02:36:02.674Z,99006.53
2018-12-30T02:37:08.513Z,99012.51
2018-12-30T02:38:11.655Z,99012.23
2018-12-30T02:39:23.402Z,99010.33
2018-12-30T02:40:26.236Z,99008.70
2018-12-30T02:41:29.128Z,99007.92
2018-12-30T02:42:32.330Z,99016.02
2018-12-30T02:43:35.177Z,99019.53
2018-12-30T02:44:41.385Z,99024.14
2018-12-30T02:45:47.192Z,99024.95
2018-12-30T02:46:50.060Z,99024.69
2018-12-30T02:47:53.141Z,99022.80
2018-12-30T02:48:56.351Z,99022.80
2018-12-30T02:49:59.173Z,99016.58
2018-12-30T02:51:03.292Z,99029.02
2018-12-30T02:52:06.129Z,99030.37
2018-12-30T02:53:09.091Z,99034.42
2018-12-30T02:54:11.943Z,99027.38
2018-12-30T02:55:15.399Z,99034.14
2018-12-30T02:56:18.343Z,99031.20
2018-12-30T02:57:21.486Z,99036.60
2018-12-30T02:58:24.352Z,99009.81
2018-12-30T02:59:27.401Z,99038.48
2018-12-30T03:00:30.581Z,99033.63
2018-12-30T03:01:33.444Z,99028.50
2018-12-30T03:02:36.659Z,99028.50
2018-12-30T03:03:39.752Z,99044.45
2018-12-30T03:04:42.688Z,99043.38
2018-12-30T03:05:46.008Z,99042.83
2018-12-30T03:06:48.781Z,99038.48
2018-12-30T03:07:51.682Z,99038.48
2018-12-30T03:08:54.479Z,99043.89
2018-12-30T03:09:57.599Z,99036.05
2018-12-30T03:11:00.988Z,99044.97
2018-12-30T03:12:03.767Z,99044.97
2018-12-30T03:13:06.633Z,99040.91
2018-12-30T03:14:09.404Z,99041.73
2018-12-30T03:15:12.264Z,99034.70
2018-12-30T03:16:15.715Z,99035.27
2018-12-30T03:17:18.556Z,99035.27
2018-12-30T03:18:22.934Z,99036.62
2018-12-30T03:19:26.360Z,99041.75
2018-12-30T03:20:29.124Z,99027.96
2018-12-30T03:21:31.988Z,99040.68
2018-12-30T03:22:35.204Z,99040.68
2018-12-30T03:23:37.959Z,99028.77
2018-12-30T03:24:40.853Z,99037.42
2018-12-30T03:25:43.616Z,99035.80
2018-12-30T03:26:46.479Z,99033.37
2018-12-30T03:27:51.375Z,99043.91
2018-12-30T03:28:54.463Z,99043.91
2018-12-30T03:29:57.818Z,99033.37
2018-12-30T03:31:00.586Z,99036.62
2018-12-30T03:32:03.514Z,99037.15
2018-12-30T03:33:06.373Z,99036.07
2018-12-30T03:34:09.613Z,99036.07
2018-12-30T03:35:13.288Z,99039.58
2018-12-30T03:36:16.148Z,99039.58
2018-12-30T03:37:18.916Z,99041.50
2018-12-30T03:38:21.637Z,99038.51
2018-12-30T03:39:24.412Z,99053.66
2018-12-30T03:40:27.251Z,99052.31
2018-12-30T03:41:30.390Z,99052.31
2018-12-30T03:42:33.227Z,99059.06
2018-12-30T03:43:36.051Z,99060.14
2018-12-30T03:44:38.851Z,99056.64
2018-12-30T03:45:42.233Z,99051.75
2018-12-30T03:46:46.599Z,99058.26
2018-12-30T03:47:49.797Z,99057.43
2018-12-30T03:48:53.069Z,99053.93
2018-12-30T03:49:55.959Z,99053.93
2018-12-30T03:50:58.859Z,99065.27
2018-12-30T03:52:08.346Z,99065.27
2018-12-30T03:53:06.393Z,99069.31
2018-12-30T03:54:09.945Z,99069.31
2018-12-30T03:55:12.921Z,99065.54
2018-12-30T03:56:15.822Z,99067.72
2018-12-30T03:57:19.318Z,99067.72
2018-12-30T03:58:22.145Z,99070.66
2018-12-30T03:59:25.405Z,99075.82
2018-12-30T04:00:28.653Z,99086.08
2018-12-30T04:01:31.418Z,99087.70
2018-12-30T04:02:34.371Z,99087.70
2018-12-30T04:03:37.154Z,99089.59
2018-12-30T04:04:39.987Z,99083.93
2018-12-30T04:05:42.830Z,99090.12
2018-12-30T04:06:45.986Z,99090.12
2018-12-30T04:07:48.909Z,99090.12
2018-12-30T04:08:51.942Z,99094.98
2018-12-30T04:09:54.775Z,99094.98
2018-12-30T04:10:57.529Z,99093.11
2018-12-30T04:12:00.818Z,99092.03
2018-12-30T04:13:03.965Z,99087.16
2018-12-30T04:14:06.763Z,99087.16
2018-12-30T04:15:09.607Z,99095.81
2018-12-30T04:16:12.450Z,99095.54
2018-12-30T04:17:15.320Z,99095.54
2018-12-30T04:18:18.131Z,99103.36
2018-12-30T04:19:21.251Z,99111.47
2018-12-30T04:20:24.026Z,99111.47
2018-12-30T04:21:26.933Z,99108.52
2018-12-30T04:22:30.216Z,99103.64
2018-12-30T04:23:33.061Z,99111.77
2018-12-30T04:24:35.865Z,99111.48
2018-12-30T04:25:38.996Z,99118.52
2018-12-30T04:26:42.741Z,99117.16
2018-12-30T04:27:45.643Z,99114.18
2018-12-30T04:28:48.510Z,99109.87
2018-12-30T04:29:51.378Z,99113.66
2018-12-30T04:30:54.174Z,99113.66
2018-12-30T04:31:57.413Z,99110.97
2018-12-30T04:33:00.702Z,99119.59
2018-12-30T04:34:03.919Z,99125.27
2018-12-30T04:35:06.650Z,99129.05
2018-12-30T04:36:09.436Z,99129.05
2018-12-30T04:37:12.366Z,99129.05
2018-12-30T04:38:15.511Z,99125.83
2018-12-30T04:39:18.688Z,99125.83
2018-12-30T04:40:21.467Z,99141.22
2018-12-30T04:41:24.332Z,99147.71
2018-12-30T04:42:27.241Z,99149.06
2018-12-30T04:43:30.065Z,99151.25
2018-12-30T04:44:34.290Z,99149.34
2018-12-30T04:45:37.077Z,99156.65
2018-12-30T04:46:39.952Z,99160.98
2018-12-30T04:47:43.358Z,99155.02
2018-12-30T04:48:46.152Z,99160.42
2018-12-30T04:49:49.055Z,99167.19
2018-12-30T04:50:52.209Z,99162.58
2018-12-30T04:51:54.995Z,99171.24
2018-12-30T04:52:58.125Z,99164.48
2018-12-30T04:54:01.194Z,99170.69
2018-12-30T04:55:04.268Z,99174.22
2018-12-30T04:56:07.056Z,99166.63
2018-12-30T04:57:10.135Z,99168.81
2018-12-30T04:58:13.012Z,99173.94
2018-12-30T04:59:15.885Z,99176.38
2018-12-30T05:00:18.723Z,99164.48
2018-12-30T05:01:21.567Z,99175.30
2018-12-30T05:02:24.820Z,99169.61
2018-12-30T05:03:27.967Z,99169.61
2018-12-30T05:04:30.864Z,99167.98
2018-12-30T05:05:33.685Z,99176.38
2018-12-30T05:06:36.508Z,99186.11
2018-12-30T05:07:39.351Z,99189.37
2018-12-30T05:08:42.137Z,99189.37
2018-12-30T05:09:45.215Z,99178.80
2018-12-30T05:10:48.045Z,99175.30
2018-12-30T05:11:50.875Z,99179.63
2018-12-30T05:12:53.778Z,99180.98
2018-12-30T05:13:56.597Z,99180.98
2018-12-30T05:14:59.521Z,99170.17
2018-12-30T05:16:02.871Z,99189.09
2018-12-30T05:17:05.671Z,99189.09
2018-12-30T05:18:08.526Z,99185.31
2018-12-30T05:19:11.296Z,99193.67
2018-12-30T05:20:14.040Z,99187.47
2018-12-30T05:21:16.826Z,99187.47
2018-12-30T05:22:19.969Z,99194.23
2018-12-30T05:23:23.333Z,99194.23
2018-12-30T05:24:26.118Z,99193.95
2018-12-30T05:25:28.891Z,99201.27
2018-12-30T05:26:31.698Z,99207.47
2018-12-30T05:27:34.591Z,99210.17
2018-12-30T05:28:37.716Z,99215.85
2018-12-30T05:29:41.009Z,99215.85
2018-12-30T05:30:43.781Z,99220.19
2018-12-30T05:31:47.001Z,99224.77
2018-12-30T05:32:50.075Z,99231.28
2018-12-30T05:33:52.864Z,99230.45
2018-12-30T05:34:56.693Z,99230.45
2018-12-30T05:35:59.904Z,99229.65
2018-12-30T05:37:02.855Z,99225.59
2018-12-30T05:38:06.174Z,99235.86
2018-12-30T05:39:09.510Z,99242.61
2018-12-30T05:40:12.325Z,99242.61
2018-12-30T05:41:15.413Z,99245.87
2018-12-30T05:42:18.244Z,99251.80
2018-12-30T05:43:21.153Z,99250.45
2018-12-30T05:44:23.915Z,99256.14
2018-12-30T05:45:26.693Z,99261.02
2018-12-30T05:46:29.929Z,99266.16
2018-12-30T05:47:33.051Z,99259.39
2018-12-30T05:48:35.900Z,99266.44
2018-12-30T05:49:38.713Z,99266.16
2018-12-30T05:50:41.514Z,99266.43
2018-12-30T05:51:44.344Z,99262.66
2018-12-30T05:52:47.175Z,99262.66
2018-12-30T05:53:50.307Z,99263.45
2018-12-30T05:54:53.166Z,99261.27
2018-12-30T05:55:58.927Z,99274.55
2018-12-30T05:57:01.710Z,99275.62
2018-12-30T05:58:04.535Z,99281.83
2018-12-30T05:59:07.336Z,99281.83
2018-12-30T06:00:10.580Z,99272.36
2018-12-30T06:01:13.808Z,99272.13
2018-12-30T06:02:16.622Z,99269.41
2018-12-30T06:03:19.416Z,99269.41
2018-12-30T06:04:22.335Z,99266.44
2018-12-30T06:05:25.161Z,99268.59
2018-12-30T06:06:28.255Z,99264.80
2018-12-30T06:07:31.028Z,99268.86
2018-12-30T06:08:34.256Z,99267.78
2018-12-30T06:09:37.082Z,99276.42
2018-12-30T06:10:40.984Z,99264.81
2018-12-30T06:11:43.797Z,99264.25
2018-12-30T06:12:46.871Z,99261.55
2018-12-30T06:13:50.110Z,99262.10
2018-12-30T06:14:53.073Z,99253.44
2018-12-30T06:15:55.851Z,99248.30
2018-12-30T06:16:58.655Z,99247.23
2018-12-30T06:18:01.541Z,99247.23
2018-12-30T06:19:04.747Z,99246.43
2018-12-30T06:20:07.591Z,99235.06
2018-12-30T06:21:10.507Z,99240.74
2018-12-30T06:22:13.278Z,99236.97
2018-12-30T06:23:16.045Z,99232.91
2018-12-30T06:24:18.835Z,99232.91
2018-12-30T06:25:21.908Z,99243.17
2018-12-30T06:26:24.736Z,99247.23
2018-12-30T06:27:27.494Z,99252.36
2018-12-30T06:28:33.264Z,99251.56
2018-12-30T06:29:36.112Z,99253.44
2018-12-30T06:43:49.545Z,99313.20
2018-12-30T06:44:52.609Z,99305.92
2018-12-30T06:45:55.682Z,99305.92
2018-12-30T06:46:58.480Z,99301.87
2018-12-30T06:48:01.317Z,99312.41
2018-12-30T06:49:04.454Z,99303.22
2018-12-30T06:50:07.250Z,99307.27
2018-12-30T06:51:10.151Z,99307.27
2018-12-30T06:52:13.370Z,99303.46
2018-12-30T06:53:16.267Z,99299.16
2018-12-30T06:54:19.190Z,99305.38
2018-12-30T06:55:23.566Z,99301.59
2018-12-30T06:56:26.428Z,99307.52
2018-12-30T06:57:29.282Z,99305.36
2018-12-30T06:58:32.197Z,99305.92
2018-12-30T06:59:35.016Z,99292.64
2018-12-30T07:00:38.255Z,99292.64
2018-12-30T07:01:42.559Z,99293.48
2018-12-30T07:02:45.782Z,99298.61
2018-12-30T07:03:49.162Z,99302.11
2018-12-30T07:04:51.956Z,99310.50
2018-12-30T07:05:54.733Z,99323.22
2018-12-30T07:06:59.959Z,99323.22
2018-12-30T07:08:03.227Z,99344.86
2018-12-30T07:09:05.987Z,99344.86
2018-12-30T07:10:08.775Z,99341.31
2018-12-30T07:11:11.651Z,99340.52
2018-12-30T07:12:14.500Z,99330.78
2018-12-30T07:13:17.424Z,99340.52
2018-12-30T07:14:20.663Z,99333.77
2018-12-30T07:15:25.975Z,99333.77
2018-12-30T07:16:28.778Z,99335.91
2018-12-30T07:17:31.735Z,99345.65
2018-12-30T07:18:34.608Z,99349.19
2018-12-30T07:19:37.513Z,99349.19
2018-12-30T07:20:40.687Z,99350.53
2018-12-30T07:21:43.474Z,99338.89
2018-12-30T07:22:46.258Z,99343.77
2018-12-30T07:23:49.101Z,99341.59
2018-12-30T07:24:51.986Z,99341.59
2018-12-30T07:25:54.843Z,99336.46
2018-12-30T07:26:58.013Z,99345.93
2018-12-30T07:28:00.919Z,99345.93
2018-12-30T07:29:03.704Z,99335.91
2018-12-30T07:30:06.530Z,99337.55
2018-12-30T07:31:09.845Z,99346.20
2018-12-30T07:32:12.701Z,99355.95
2018-12-30T07:33:15.848Z,99358.11
2018-12-30T07:34:18.757Z,99368.13
2018-12-30T07:35:21.513Z,99369.73
2018-12-30T07:36:24.273Z,99373.26
2018-12-30T07:37:28.967Z,99377.84
2018-12-30T07:38:31.790Z,99367.85
2018-12-30T07:39:34.995Z,99367.85
2018-12-30T07:40:38.017Z,99385.42
2018-12-30T07:41:43.096Z,99385.42
2018-12-30T07:42:45.884Z,99385.44
2018-12-30T07:43:48.789Z,99374.06
2018-12-30T07:44:51.626Z,99376.24
2018-12-30T07:45:54.771Z,99372.98
2018-12-30T07:46:58.629Z,99378.39
2018-12-30T07:48:04.639Z,99378.39
2018-12-30T07:49:07.415Z,99374.89
2018-12-30T07:50:10.375Z,99370.83
2018-12-30T07:51:14.960Z,99372.18
2018-12-30T07:52:18.090Z,99371.34
2018-12-30T07:53:20.997Z,99371.62
2018-12-30T07:54:24.276Z,99377.59
2018-12-30T07:55:27.208Z,99371.08
2018-12-30T07:56:30.071Z,99362.16
2018-12-30T07:57:32.883Z,99368.13
2018-12-30T07:58:35.955Z,99368.13
2018-12-30T07:59:38.782Z,99370.84
2018-12-30T08:00:41.713Z,99370.56
2018-12-30T08:01:44.478Z,99370.56
2018-12-30T08:02:47.259Z,99364.88
2018-12-30T08:03:50.054Z,99367.30
2018-12-30T08:04:53.097Z,99364.33
2018-12-30T08:05:56.419Z,99364.33
2018-12-30T08:07:01.033Z,99368.94
2018-12-30T08:08:03.866Z,99368.94
2018-12-30T08:09:06.658Z,99367.30
2018-12-30T08:10:09.479Z,99359.20
2018-12-30T08:11:12.565Z,99363.25
2018-12-30T08:12:15.507Z,99363.25
2018-12-30T08:13:18.817Z,99361.89
2018-12-30T08:14:21.728Z,99365.95
2018-12-30T08:15:24.645Z,99372.20
2018-12-30T08:16:27.512Z,99374.35
2018-12-30T08:17:30.529Z,99371.13
2018-12-30T08:18:33.567Z,99372.20
2018-12-30T08:19:36.400Z,99376.54
2018-12-30T08:20:44.167Z,99373.01
2018-12-30T08:21:46.945Z,99373.01
2018-12-30T08:22:50.862Z,99378.14
2018-12-30T08:23:54.063Z,99380.84
2018-12-30T08:24:56.811Z,99382.47
2018-12-30T08:25:59.613Z,99382.47
2018-12-30T08:27:02.491Z,99386.80
2018-12-30T08:28:05.248Z,99388.16
2018-12-30T08:29:08.580Z,99394.36
2018-12-30T08:30:12.020Z,99387.60
2018-12-30T08:31:14.803Z,99387.60
2018-12-30T08:32:20.053Z,99394.91
2018-12-30T08:33:22.830Z,99392.48
2018-12-30T08:34:26.171Z,99395.98
2018-12-30T08:35:31.288Z,99384.08
2018-12-30T08:36:34.427Z,99398.95
2018-12-30T08:37:37.202Z,99395.97
2018-12-30T08:38:43.210Z,99395.18
2018-12-30T08:39:46.828Z,99398.41
2018-12-30T08:40:49.564Z,99410.05
2018-12-30T08:41:52.349Z,99413.28
2018-12-30T08:42:55.494Z,99412.77
2018-12-30T08:44:01.100Z,99417.07
2018-12-30T08:45:04.061Z,99422.77
2018-12-30T08:46:06.824Z,99422.48
2018-12-30T08:47:09.696Z,99424.67
2018-12-30T08:48:12.853Z,99429.89
2018-12-30T08:49:15.691Z,99431.54
2018-12-30T08:50:18.597Z,99438.03
2018-12-30T08:51:21.390Z,99439.38
2018-12-30T08:52:24.208Z,99438.52
2018-12-30T08:53:29.903Z,99437.70
2018-12-30T08:54:35.698Z,99437.70
2018-12-30T08:55:40.778Z,99436.30
2018-12-30T08:56:46.964Z,99427.38
2018-12-30T08:57:49.736Z,99430.64
2018-12-30T08:58:53.054Z,99430.64
2018-12-30T08:59:57.296Z,99427.09
2018-12-30T09:01:01.883Z,99423.87
2018-12-30T09:02:04.730Z,99424.93
2018-12-30T09:03:07.501Z,99427.89
2018-12-30T09:04:13.451Z,99433.58
2018-12-30T09:05:16.517Z,99445.75
2018-12-30T09:06:19.366Z,99438.17
2018-12-30T09:07:22.523Z,99439.80
2018-12-30T09:08:25.803Z,99440.61
2018-12-30T09:09:29.651Z,99442.23
2018-12-30T09:10:32.493Z,99444.66
2018-12-30T09:11:38.069Z,99444.39
2018-12-30T09:12:41.304Z,99435.98
2018-12-30T09:13:45.629Z,99436.82
2018-12-30T09:14:48.396Z,99436.82
2018-12-30T09:15:51.297Z,99437.34
2018-12-30T09:16:58.821Z,99435.73
2018-12-30T09:18:01.608Z,99437.90
2018-12-30T09:19:05.564Z,99441.41
2018-12-30T09:20:08.685Z,99441.41
2018-12-30T09:21:11.710Z,99432.48
2018-12-30T09:22:14.553Z,99432.48
2018-12-30T09:23:22.836Z,99436.04
2018-12-30T09:24:25.682Z,99442.25
2018-12-30T09:25:28.493Z,99441.50
2018-12-30T09:26:31.688Z,99441.53
2018-12-30T09:27:34.514Z,99443.13
2018-12-30T09:28:37.284Z,99446.31
2018-12-30T09:29:42.872Z,99446.82
2018-12-30T09:30:50.443Z,99447.63
2018-12-30T09:31:53.484Z,99447.63
2018-12-30T09:32:56.727Z,99449.78
2018-12-30T09:33:59.905Z,99451.13
2018-12-30T09:35:05.598Z,99453.84
2018-12-30T09:36:12.376Z,99455.17
2018-12-30T09:37:15.102Z,99455.17
2018-12-30T09:38:20.839Z,99459.52
2018-12-30T09:39:24.135Z,99459.52
2018-12-30T09:40:26.965Z,99465.20
2018-12-30T09:41:29.756Z,99467.07
2018-12-30T09:42:32.703Z,99465.20
2018-12-30T09:43:35.719Z,99465.20
2018-12-30T09:44:42.049Z,99459.87
2018-12-30T09:45:44.841Z,99457.75
2018-12-30T09:46:50.458Z,99457.75
2018-12-30T09:47:53.451Z,99470.73
2018-12-30T09:48:56.464Z,99471.30
2018-12-30T09:50:02.528Z,99475.64
2018-12-30T09:51:08.454Z,99478.83
2018-12-30T09:52:11.307Z,99477.14
2018-12-30T09:53:14.440Z,99482.25
2018-12-30T09:54:17.198Z,99482.25
2018-12-30T09:55:20.065Z,99472.77
2018-12-30T09:56:23.077Z,99466.55
2018-12-30T09:57:26.260Z,99464.92
2018-12-30T09:58:29.093Z,99456.55
2018-12-30T09:59:32.006Z,99466.83
2018-12-30T10:00:35.068Z,99462.20
2018-12-30T10:01:40.297Z,99470.88
2018-12-30T10:02:43.697Z,99467.33
2018-12-30T10:03:51.281Z,99468.39
2018-12-30T10:04:51.556Z,99468.39
2018-12-30T10:05:55.228Z,99472.71
2018-12-30T10:07:00.904Z,99469.47
2018-12-30T10:08:03.725Z,99470.56
2018-12-30T10:09:06.636Z,99467.02
2018-12-30T10:10:19.776Z,99467.02
2018-12-30T10:11:22.755Z,99473.52
2018-12-30T10:12:25.696Z,99472.99
2018-12-30T10:13:31.660Z,99487.00
2018-12-30T10:14:34.620Z,99487.00
2018-12-30T10:15:38.219Z,99477.78
2018-12-30T10:16:41.625Z,99478.36
2018-12-30T10:17:46.988Z,99480.23
2018-12-30T10:18:52.692Z,99487.28
2018-12-30T10:19:57.240Z,99490.28
2018-12-30T10:21:00.645Z,99484.59
2018-12-30T10:22:04.127Z,99485.41
2018-12-30T10:23:12.671Z,99478.66
2018-12-30T10:24:18.296Z,99467.28
2018-12-30T10:25:21.668Z,99468.09
2018-12-30T10:26:24.597Z,99474.33
2018-12-30T10:27:27.618Z,99475.97
2018-12-30T10:28:30.889Z,99469.22
2018-12-30T10:29:34.261Z,99481.39
2018-12-30T10:30:37.223Z,99481.72
2018-12-30T10:31:40.166Z,99483.92
2018-12-30T10:32:43.231Z,99483.92
2018-12-30T10:33:46.171Z,99488.12
2018-12-30T10:34:55.359Z,99488.94
2018-12-30T10:35:58.338Z,99494.10
2018-12-30T10:37:01.237Z,99493.23
2018-12-30T10:38:04.295Z,99497.80
2018-12-30T10:39:07.247Z,99498.31
2018-12-30T10:40:10.215Z,99493.98
2018-12-30T10:41:13.819Z,99493.98
2018-12-30T10:42:17.357Z,99492.34
2018-12-30T10:43:20.386Z,99490.99
2018-12-30T10:44:23.811Z,99490.69
2018-12-30T10:45:26.798Z,99490.69
2018-12-30T10:46:29.749Z,99498.81
2018-12-30T10:47:33.795Z,99505.03
2018-12-30T10:48:39.857Z,99498.52
2018-12-30T10:49:42.677Z,99504.78
2018-12-30T10:50:45.650Z,99495.81
2018-12-30T10:51:48.652Z,99495.81
2018-12-30T10:52:51.756Z,99500.12
2018-12-30T10:54:00.648Z,99509.83
2018-12-30T10:54:59.537Z,99509.83
2018-12-30T10:56:02.552Z,99492.00
2018-12-30T10:57:08.860Z,99487.64
2018-12-30T10:58:12.291Z,99495.48
2018-12-30T10:59:15.256Z,99491.50
2018-12-30T11:00:18.271Z,99491.50
2018-12-30T11:01:21.396Z,99488.98
2018-12-30T11:02:24.380Z,99488.98
2018-12-30T11:03:27.293Z,99488.66
2018-12-30T11:04:30.570Z,99487.05
2018-12-30T11:05:33.531Z,99491.16
2018-12-30T11:06:37.052Z,99497.35
2018-12-30T11:07:40.025Z,99498.45
2018-12-30T11:08:43.125Z,99498.45
2018-12-30T11:09:46.780Z,99485.47
2018-12-30T11:10:52.983Z,99494.40
2018-12-30T11:11:56.000Z,99494.40
2018-12-30T11:12:58.955Z,99499.00
2018-12-30T11:14:03.551Z,99499.00
2018-12-30T11:15:06.479Z,99490.63
2018-12-30T11:16:09.552Z,99487.12
2018-12-30T11:17:12.900Z,99483.58
2018-12-30T11:18:16.493Z,99483.58
2018-12-30T11:19:22.354Z,99476.51
2018-12-30T11:20:30.087Z,99476.51
2018-12-30T11:21:35.698Z,99467.08
2018-12-30T11:22:38.813Z,99464.67
2018-12-30T11:23:42.161Z,99466.28
2018-12-30T11:24:45.212Z,99461.16
2018-12-30T11:25:48.591Z,99461.16
2018-12-30T11:26:51.914Z,99462.81
2018-12-30T11:27:54.993Z,99452.78
2018-12-30T11:28:59.915Z,99460.39
2018-12-30T11:30:03.401Z,99455.77
2018-12-30T11:42:49.270Z,99428.45
2018-12-30T11:43:52.277Z,99425.76
2018-12-30T11:44:55.224Z,99425.76
2018-12-30T11:46:02.891Z,99422.28
2018-12-30T11:47:05.843Z,99429.60
2018-12-30T11:48:11.889Z,99413.90
2018-12-30T11:49:14.819Z,99420.42
2018-12-30T11:50:24.719Z,99420.13
2018-12-30T11:51:27.698Z,99420.13
2018-12-30T11:52:30.644Z,99420.38
2018-12-30T11:53:36.917Z,99415.80
2018-12-30T11:54:40.388Z,99417.95
2018-12-30T11:55:43.424Z,99423.08
2018-12-30T11:56:46.480Z,99421.48
2018-12-30T11:57:51.048Z,99419.01
2018-12-30T11:58:54.018Z,99410.61
2018-12-30T11:59:58.245Z,99412.52
2018-12-30T12:01:01.736Z,99411.45
2018-12-30T12:02:08.097Z,99403.05
2018-12-30T12:03:11.152Z,99401.13
2018-12-30T12:04:14.177Z,99412.24
2018-12-30T12:05:17.130Z,99405.47
2018-12-30T12:06:22.110Z,99412.77
2018-12-30T12:07:24.612Z,99421.42
2018-12-30T12:08:30.438Z,99420.36
2018-12-30T12:09:33.383Z,99426.84
2018-12-30T12:10:36.747Z,99426.84
2018-12-30T12:11:42.599Z,99427.96
2018-12-30T12:12:49.083Z,99431.47
2018-12-30T12:13:51.964Z,99431.47
2018-12-30T12:14:57.124Z,99428.48
2018-12-30T12:16:00.180Z,99432.81
2018-12-30T12:17:03.209Z,99432.81
2018-12-30T12:18:09.001Z,99435.80
2018-12-30T12:19:14.062Z,99439.30
2018-12-30T12:20:16.679Z,99435.24
2018-12-30T12:21:19.663Z,99442.00
2018-12-30T12:22:22.675Z,99442.00
2018-12-30T12:23:28.161Z,99428.47
2018-12-30T12:24:31.808Z,99427.95
2018-12-30T12:25:34.758Z,99439.30
2018-12-30T12:26:37.815Z,99436.86
2018-12-30T12:27:43.660Z,99441.71
2018-12-30T12:28:46.843Z,99441.71
2018-12-30T12:29:51.977Z,99434.95
2018-12-30T12:30:55.074Z,99435.79
2018-12-30T12:31:59.319Z,99420.34
2018-12-30T12:33:03.793Z,99433.08
2018-12-30T12:34:06.763Z,99422.27
2018-12-30T12:35:09.817Z,99430.91
2018-12-30T12:36:13.226Z,99435.23
2018-12-30T12:37:18.977Z,99436.08
2018-12-30T12:38:22.153Z,99436.08
2018-12-30T12:39:25.206Z,99437.70
2018-12-30T12:40:28.141Z,99435.24
2018-12-30T12:41:31.232Z,99431.45
2018-12-30T12:42:34.862Z,99431.45
2018-12-30T12:43:49.462Z,99425.77
2018-12-30T12:44:55.644Z,99417.13
2018-12-30T12:46:01.074Z,99417.13
2018-12-30T12:47:06.377Z,99413.31
2018-12-30T12:48:32.294Z,99422.77
2018-12-30T12:49:17.436Z,99416.56
2018-12-30T12:50:20.341Z,99413.31